createdAt,value
2018-02-09T00:01:18.257Z,10.80
2018-02-09T00:03:21.651Z,11.30
2018-02-09T00:05:25.096Z,10.83
2018-02-09T00:07:29.274Z,10.47
2018-02-09T00:09:32.679Z,10.10
2018-02-09T00:11:36.099Z,10.97
2018-02-09T00:13:39.488Z,10.20
2018-02-09T00:15:43.672Z,9.93
2018-02-09T00:17:47.048Z,10.23
2018-02-09T00:19:50.443Z,11.00
2018-02-09T00:21:53.915Z,9.90
2018-02-09T00:23:57.545Z,9.83
2018-02-09T00:26:00.963Z,9.77
2018-02-09T00:28:04.398Z,10.43
2018-02-09T00:30:07.782Z,10.50
2018-02-09T00:32:11.194Z,9.70
2018-02-09T00:34:14.586Z,9.80
2018-02-09T00:36:18.765Z,9.60
2018-02-09T00:38:22.202Z,10.37
2018-02-09T00:40:25.602Z,10.13
2018-02-09T00:42:29.014Z,10.43
2018-02-09T00:44:32.442Z,10.63
2018-02-09T00:46:35.829Z,10.47
2018-02-09T00:48:39.200Z,10.30
2018-02-09T00:50:42.570Z,10.50
2018-02-09T00:52:46.021Z,10.73
2018-02-09T00:54:49.421Z,11.67
2018-02-09T00:56:52.803Z,10.07
2018-02-09T00:58:56.247Z,10.77
2018-02-09T01:00:59.647Z,10.80
2018-02-09T01:03:03.033Z,10.43
2018-02-09T01:05:06.753Z,9.83
2018-02-09T01:07:10.915Z,11.33
2018-02-09T01:09:14.317Z,10.73
2018-02-09T01:11:18.687Z,10.57
2018-02-09T01:13:22.857Z,10.50
2018-02-09T01:15:26.252Z,10.83
2018-02-09T01:17:29.628Z,10.83
2018-02-09T01:19:33.051Z,10.53
2018-02-09T01:21:36.418Z,11.93
2018-02-09T01:23:39.825Z,10.47
2018-02-09T01:25:43.226Z,10.73
2018-02-09T01:27:46.633Z,11.10
2018-02-09T01:29:50.077Z,11.07
2018-02-09T01:31:53.520Z,10.13
2018-02-09T01:33:57.696Z,12.07
2018-02-09T01:36:01.100Z,9.47
2018-02-09T01:38:04.487Z,10.00
2018-02-09T01:40:07.928Z,10.67
2018-02-09T01:42:11.311Z,10.80
2018-02-09T01:44:15.483Z,10.63
2018-02-09T01:46:18.925Z,10.57
2018-02-09T01:48:22.431Z,10.77
2018-02-09T01:50:25.851Z,10.60
2018-02-09T01:52:29.242Z,10.33
2018-02-09T01:54:32.624Z,11.13
2018-02-09T01:56:36.081Z,11.00
2018-02-09T01:58:40.221Z,10.13
2018-02-09T02:00:43.638Z,10.57
2018-02-09T02:02:47.023Z,10.63
2018-02-09T02:04:50.416Z,10.30
2018-02-09T02:06:53.828Z,11.13
2018-02-09T02:08:57.231Z,10.47
2018-02-09T02:11:00.604Z,11.20
2018-02-09T02:13:03.983Z,12.00
2018-02-09T02:15:07.658Z,10.60
2018-02-09T02:17:11.082Z,10.10
2018-02-09T02:19:14.475Z,10.43
2018-02-09T02:21:17.849Z,10.27
2018-02-09T02:23:21.256Z,10.80
2018-02-09T02:25:24.636Z,10.47
2018-02-09T02:27:28.034Z,10.53
2018-02-09T02:29:31.411Z,11.17
2018-02-09T02:31:34.795Z,10.70
2018-02-09T02:33:38.203Z,9.90
2018-02-09T02:35:41.590Z,10.90
2018-02-09T02:37:45.754Z,10.77
2018-02-09T02:39:49.126Z,10.67
2018-02-09T02:41:52.548Z,10.40
2018-02-09T02:43:55.952Z,11.03
2018-02-09T02:46:00.139Z,10.60
2018-02-09T02:48:03.559Z,11.60
2018-02-09T02:50:06.950Z,11.40
2018-02-09T02:52:10.330Z,10.83
2018-02-09T02:54:14.553Z,10.77
2018-02-09T02:56:18.700Z,11.10
2018-02-09T02:58:22.105Z,10.97
2018-02-09T03:00:25.511Z,9.97
2018-02-09T03:02:28.949Z,11.10
2018-02-09T03:04:32.329Z,10.90
2018-02-09T03:06:36.498Z,10.60
2018-02-09T03:08:39.891Z,10.77
2018-02-09T03:10:43.097Z,10.67
2018-02-09T03:12:46.462Z,10.47
2018-02-09T03:14:49.896Z,9.70
2018-02-09T03:16:53.283Z,10.17
2018-02-09T03:18:57.438Z,11.17
2018-02-09T03:21:00.826Z,10.30
2018-02-09T03:23:04.225Z,10.83
2018-02-09T03:25:07.665Z,10.77
2018-02-09T03:27:11.063Z,10.50
2018-02-09T03:29:14.435Z,10.63
2018-02-09T03:31:17.852Z,10.47
2018-02-09T03:33:22.016Z,10.90
2018-02-09T03:35:25.431Z,9.90
2018-02-09T03:37:28.806Z,9.50
2018-02-09T03:39:32.190Z,9.43
2018-02-09T03:41:35.600Z,10.00
2018-02-09T03:43:39.033Z,9.73
2018-02-09T03:45:42.456Z,9.80
2018-02-09T03:47:45.850Z,9.30
2018-02-09T03:49:49.289Z,10.10
2018-02-09T03:51:52.730Z,9.60
2018-02-09T03:53:56.134Z,10.30
2018-02-09T03:55:59.568Z,10.03
2018-02-09T03:58:03.741Z,10.07
2018-02-09T04:00:07.179Z,10.63
2018-02-09T04:02:11.379Z,10.60
2018-02-09T04:04:15.530Z,9.47
2018-02-09T04:06:18.934Z,9.77
2018-02-09T04:08:22.319Z,9.43
2018-02-09T04:10:25.688Z,10.37
2018-02-09T04:12:29.884Z,10.33
2018-02-09T04:14:33.251Z,10.33
2018-02-09T04:16:36.639Z,10.20
2018-02-09T04:18:40.025Z,10.27
2018-02-09T04:20:43.214Z,9.40
2018-02-09T04:22:46.645Z,10.13
2018-02-09T04:24:50.039Z,9.80
2018-02-09T04:26:53.433Z,10.00
2018-02-09T04:28:56.798Z,10.37
2018-02-09T04:31:00.174Z,10.57
2018-02-09T04:33:03.626Z,10.47
2018-02-09T04:35:07.785Z,10.50
2018-02-09T04:37:11.157Z,10.63
2018-02-09T04:39:14.289Z,10.10
2018-02-09T04:41:17.708Z,10.30
2018-02-09T04:43:21.880Z,10.97
2018-02-09T04:45:25.266Z,10.07
2018-02-09T04:47:28.687Z,10.73
2018-02-09T04:49:32.057Z,10.60
2018-02-09T04:51:35.443Z,10.70
2018-02-09T04:53:38.854Z,9.97
2018-02-09T04:55:42.270Z,10.57
2018-02-09T04:57:45.652Z,11.00
2018-02-09T04:59:49.067Z,10.07
2018-02-09T05:01:53.218Z,10.57
2018-02-09T05:03:56.619Z,10.83
2018-02-09T05:06:00.516Z,10.63
2018-02-09T05:08:03.967Z,10.13
2018-02-09T05:10:08.526Z,10.43
2018-02-09T05:12:11.980Z,10.27
2018-02-09T05:14:16.246Z,10.23
2018-02-09T05:16:20.445Z,10.63
2018-02-09T05:18:23.824Z,11.23
2018-02-09T05:20:27.355Z,10.23
2018-02-09T05:22:31.511Z,10.90
2018-02-09T05:24:34.929Z,10.07
2018-02-09T05:26:38.180Z,10.33
2018-02-09T05:28:42.327Z,11.87
2018-02-09T05:30:45.770Z,10.03
2018-02-09T05:32:50.026Z,10.93
2018-02-09T05:34:53.433Z,10.30
2018-02-09T05:36:56.981Z,10.03
2018-02-09T05:39:01.120Z,10.60
2018-02-09T05:41:04.513Z,10.90
2018-02-09T05:43:07.892Z,10.63
2018-02-09T05:45:11.640Z,11.93
2018-02-09T05:47:16.048Z,10.93
2018-02-09T05:49:19.420Z,10.47
2018-02-09T05:51:22.827Z,10.77
2018-02-09T05:53:26.211Z,10.33
2018-02-09T05:55:29.592Z,11.27
2018-02-09T05:57:32.958Z,11.33
2018-02-09T05:59:37.092Z,11.03
2018-02-09T06:01:40.493Z,11.40
2018-02-09T06:03:43.883Z,11.40
2018-02-09T06:05:47.264Z,10.30
2018-02-09T06:07:50.635Z,11.50
2018-02-09T06:09:54.779Z,10.57
2018-02-09T06:11:58.202Z,11.17
2018-02-09T06:14:01.646Z,10.80
2018-02-09T06:16:04.885Z,11.60
2018-02-09T06:18:08.352Z,11.10
2018-02-09T06:20:11.827Z,10.93
2018-02-09T06:22:15.295Z,10.43
2018-02-09T06:24:19.476Z,11.07
2018-02-09T06:26:22.979Z,10.73
2018-02-09T06:28:27.185Z,10.73
2018-02-09T06:30:30.594Z,11.93
2018-02-09T06:32:34.042Z,11.70
2018-02-09T06:34:37.698Z,11.30
2018-02-09T06:36:41.899Z,11.10
2018-02-09T06:38:45.402Z,11.03
2018-02-09T06:40:49.734Z,10.97
2018-02-09T06:42:53.357Z,11.87
2018-02-09T06:44:56.775Z,10.33
2018-02-09T06:47:00.877Z,11.33
2018-02-09T06:49:05.288Z,10.10
2018-02-09T06:51:08.722Z,11.30
2018-02-09T06:53:12.947Z,11.57
2018-02-09T06:55:17.204Z,10.73
2018-02-09T06:57:20.677Z,10.83
2018-02-09T06:59:24.400Z,10.07
2018-02-09T07:01:27.950Z,10.70
2018-02-09T07:03:32.258Z,10.97
2018-02-09T07:05:36.566Z,9.93
2018-02-09T07:07:40.967Z,10.50
2018-02-09T07:09:44.685Z,10.37
2018-02-09T07:11:48.252Z,10.47
2018-02-09T07:13:51.621Z,11.20
2018-02-09T07:15:55.142Z,10.30
2018-02-09T07:17:58.666Z,10.70
2018-02-09T07:20:02.187Z,11.10
2018-02-09T07:22:05.731Z,10.90
2018-02-09T07:24:09.348Z,10.73
2018-02-09T07:26:13.653Z,10.80
2018-02-09T07:28:17.184Z,11.40
2018-02-09T07:30:20.726Z,9.60
2018-02-09T07:32:24.215Z,9.73
2018-02-09T07:34:27.996Z,10.00
2018-02-09T07:36:31.531Z,9.33
2018-02-09T07:38:35.120Z,10.73
2018-02-09T07:40:38.669Z,10.00
2018-02-09T07:42:42.204Z,10.27
2018-02-09T07:44:45.757Z,10.20
2018-02-09T07:46:49.284Z,11.33
2018-02-09T07:48:52.654Z,10.90
2018-02-09T07:50:56.071Z,11.43
2018-02-09T07:52:59.452Z,10.80
2018-02-09T07:55:02.842Z,10.17
2018-02-09T07:57:06.317Z,11.43
2018-02-09T07:59:09.716Z,10.43
2018-02-09T08:01:13.164Z,10.67
2018-02-09T08:03:16.550Z,10.30
2018-02-09T08:05:19.964Z,11.30
2018-02-09T08:07:24.147Z,10.07
2018-02-09T08:09:27.595Z,10.40
2018-02-09T08:11:30.998Z,10.63
2018-02-09T08:13:34.382Z,10.60
2018-02-09T08:15:37.798Z,10.53
2018-02-09T08:17:41.191Z,9.70
2018-02-09T08:19:44.600Z,11.67
2018-02-09T08:21:48.062Z,10.13
2018-02-09T08:23:51.479Z,10.53
2018-02-09T08:25:54.887Z,10.57
2018-02-09T08:27:58.112Z,10.40
2018-02-09T08:30:02.284Z,11.27
2018-02-09T08:32:06.054Z,10.40
2018-02-09T08:34:09.470Z,10.57
2018-02-09T08:36:12.876Z,10.33
2018-02-09T08:38:17.095Z,10.50
2018-02-09T08:40:21.266Z,11.20
2018-02-09T08:42:24.846Z,10.70
2018-02-09T08:44:28.292Z,9.90
2018-02-09T08:46:32.974Z,10.53
2018-02-09T08:48:36.437Z,10.57
2018-02-09T08:50:40.692Z,10.40
2018-02-09T08:52:44.241Z,11.33
2018-02-09T08:54:48.461Z,10.33
2018-02-09T08:56:51.869Z,10.20
2018-02-09T08:58:55.285Z,10.53
2018-02-09T09:00:58.686Z,11.53
2018-02-09T09:03:02.099Z,10.07
2018-02-09T09:05:05.492Z,10.93
2018-02-09T09:07:09.756Z,10.23
2018-02-09T09:09:14.176Z,10.90
2018-02-09T09:11:17.572Z,10.33
2018-02-09T09:13:21.019Z,11.40
2018-02-09T09:15:25.168Z,10.23
2018-02-09T09:17:28.562Z,10.87
2018-02-09T09:19:31.989Z,11.03
2018-02-09T09:21:35.400Z,10.47
2018-02-09T09:23:38.809Z,10.87
2018-02-09T09:25:42.205Z,10.20
2018-02-09T09:27:45.580Z,10.00
2018-02-09T09:29:48.981Z,10.63
2018-02-09T09:31:53.129Z,11.10
2018-02-09T09:33:56.533Z,10.83
2018-02-09T09:35:59.900Z,10.67
2018-02-09T09:38:03.292Z,10.23
2018-02-09T09:40:06.771Z,11.57
2018-02-09T09:42:10.943Z,10.90
2018-02-09T09:44:14.327Z,9.80
2018-02-09T09:46:17.800Z,10.10
2018-02-09T09:48:21.199Z,10.67
2018-02-09T09:50:24.643Z,10.03
2018-02-09T09:52:28.203Z,10.30
2018-02-09T09:54:31.591Z,10.17
2018-02-09T09:56:34.955Z,9.57
2018-02-09T09:58:38.329Z,10.63
2018-02-09T10:00:41.768Z,10.10
2018-02-09T10:02:45.312Z,9.13
2018-02-09T10:04:49.484Z,9.70
2018-02-09T10:06:52.929Z,10.57
2018-02-09T10:08:56.331Z,9.97
2018-02-09T10:10:59.772Z,8.77
2018-02-09T10:13:03.848Z,10.53
2018-02-09T10:15:07.398Z,10.50
2018-02-09T10:17:11.611Z,9.77
2018-02-09T10:19:15.750Z,10.53
2018-02-09T10:21:19.197Z,9.97
2018-02-09T10:23:23.505Z,10.90
2018-02-09T10:25:26.957Z,9.90
2018-02-09T10:27:30.572Z,9.17
2018-02-09T10:29:34.560Z,11.00
2018-02-09T10:31:37.999Z,8.83
2018-02-09T10:33:41.419Z,8.93
2018-02-09T10:35:46.272Z,8.87
2018-02-09T10:37:49.706Z,9.10
2018-02-09T10:39:53.295Z,9.57
2018-02-09T10:41:56.707Z,9.33
2018-02-09T10:44:00.116Z,9.57
2018-02-09T10:46:04.265Z,10.00
2018-02-09T10:48:07.696Z,10.23
2018-02-09T10:50:11.127Z,9.93
2018-02-09T10:52:17.484Z,9.33
2018-02-09T10:54:21.672Z,10.17
2018-02-09T10:56:25.063Z,9.27
2018-02-09T10:58:28.712Z,9.30
2018-02-09T11:00:37.476Z,9.03
2018-02-09T11:02:40.922Z,9.20
2018-02-09T11:04:44.297Z,9.40
2018-02-09T11:06:47.691Z,9.27
2018-02-09T11:08:51.093Z,9.63
2018-02-09T11:10:54.312Z,9.77
2018-02-09T11:12:57.542Z,9.13
2018-02-09T11:15:01.673Z,9.27
2018-02-09T11:17:05.080Z,9.50
2018-02-09T11:19:08.532Z,9.40
2018-02-09T11:21:11.906Z,9.00
2018-02-09T11:23:15.279Z,8.63
2018-02-09T11:25:18.670Z,9.27
2018-02-09T11:27:22.053Z,9.00
2018-02-09T11:29:25.496Z,9.27
2018-02-09T11:31:28.909Z,9.23
2018-02-09T11:33:32.290Z,9.40
2018-02-09T11:35:36.329Z,9.37
2018-02-09T11:37:39.700Z,9.33
2018-02-09T11:39:43.125Z,8.80
2018-02-09T11:41:46.502Z,9.80
2018-02-09T11:43:49.879Z,9.13
2018-02-09T11:45:53.287Z,8.80
2018-02-09T11:47:57.102Z,10.03
2018-02-09T11:50:00.729Z,9.23
2018-02-09T11:52:04.207Z,9.03
2018-02-09T11:54:07.688Z,9.70
2018-02-09T11:56:11.194Z,9.27
2018-02-09T11:58:14.704Z,9.67
2018-02-09T12:00:18.246Z,9.37
2018-02-09T12:02:21.735Z,9.37
2018-02-09T12:04:25.988Z,9.60
2018-02-09T12:06:29.772Z,8.73
2018-02-09T12:08:33.256Z,8.80
2018-02-09T12:10:37.066Z,8.80
2018-02-09T12:12:41.150Z,8.93
2018-02-09T12:14:45.310Z,9.27
2018-02-09T12:16:51.710Z,8.80
2018-02-09T12:18:55.325Z,10.23
2018-02-09T12:20:58.950Z,9.67
2018-02-09T12:23:02.469Z,8.97
2018-02-09T12:25:05.905Z,10.27
2018-02-09T12:27:10.422Z,9.60
2018-02-09T12:29:14.761Z,10.03
2018-02-09T12:31:19.807Z,10.33
2018-02-09T12:33:23.439Z,10.67
2018-02-09T12:35:26.943Z,11.57
2018-02-09T12:37:30.663Z,12.40
2018-02-09T12:39:35.031Z,12.10
2018-02-09T12:41:38.899Z,11.57
2018-02-09T12:43:42.510Z,11.47
2018-02-09T12:45:46.202Z,11.23
2018-02-09T12:47:49.775Z,11.60
2018-02-09T12:49:54.193Z,10.87
2018-02-09T12:51:58.370Z,12.13
2018-02-09T12:54:01.724Z,11.77
2018-02-09T12:56:05.614Z,11.13
2018-02-09T12:58:09.333Z,10.87
2018-02-09T13:00:12.871Z,11.80
2018-02-09T13:02:16.791Z,11.10
2018-02-09T13:04:21.092Z,11.47
2018-02-09T13:06:26.477Z,11.43
2018-02-09T13:08:30.029Z,10.83
2018-02-09T13:10:34.396Z,11.67
2018-02-09T13:12:49.649Z,10.43
2018-02-09T13:14:53.160Z,10.03
2018-02-09T13:16:58.403Z,11.60
2018-02-09T13:19:02.213Z,10.63
2018-02-09T13:21:05.786Z,11.07
2018-02-09T13:23:21.020Z,10.13
2018-02-09T13:25:25.096Z,10.80
2018-02-09T13:27:28.948Z,11.27
2018-02-09T13:29:33.990Z,10.37
2018-02-09T13:31:37.557Z,10.37
2018-02-09T13:33:41.963Z,10.23
2018-02-09T13:35:45.608Z,10.93
2018-02-09T13:37:48.985Z,10.97
2018-02-09T13:39:53.378Z,10.50
2018-02-09T13:41:57.561Z,10.20
2018-02-09T13:44:03.170Z,10.57
2018-02-09T13:46:06.672Z,9.73
2018-02-09T13:48:10.133Z,9.63
2018-02-09T13:50:14.954Z,10.00
2018-02-09T13:52:19.312Z,10.23
2018-02-09T13:54:23.193Z,10.90
2018-02-09T13:56:26.780Z,9.40
2018-02-09T13:58:30.923Z,10.57
2018-02-09T14:00:34.310Z,9.90
2018-02-09T14:02:38.120Z,10.40
2018-02-09T14:04:42.128Z,9.73
2018-02-09T14:06:45.603Z,10.13
2018-02-09T14:08:49.150Z,10.90
2018-02-09T14:10:53.458Z,10.37
2018-02-09T14:12:56.848Z,9.90
2018-02-09T14:15:00.254Z,10.13
2018-02-09T14:17:03.642Z,10.23
2018-02-09T14:19:07.514Z,9.10
2018-02-09T14:21:11.113Z,9.60
2018-02-09T14:23:14.545Z,9.80
2018-02-09T14:25:17.971Z,10.40
2018-02-09T14:27:22.279Z,10.33
2018-02-09T14:29:25.738Z,10.40
2018-02-09T14:31:29.309Z,10.80
2018-02-09T14:33:32.689Z,9.80
2018-02-09T14:35:36.525Z,10.00
2018-02-09T14:37:41.986Z,10.77
2018-02-09T14:39:47.531Z,10.73
2018-02-09T14:41:51.822Z,10.10
2018-02-09T14:43:55.513Z,9.40
2018-02-09T14:46:00.293Z,10.43
2018-02-09T14:48:03.738Z,10.00
2018-02-09T14:50:07.450Z,11.10
2018-02-09T14:52:11.689Z,10.57
2018-02-09T14:54:15.117Z,11.13
2018-02-09T14:56:18.494Z,10.10
2018-02-09T14:58:21.887Z,11.00
2018-02-09T15:00:25.656Z,9.97
2018-02-09T15:02:29.316Z,10.27
2018-02-09T15:04:32.737Z,10.60
2018-02-09T15:06:36.264Z,10.20
2018-02-09T15:08:39.852Z,10.03
2018-02-09T15:10:44.170Z,10.03
2018-02-09T15:12:48.417Z,9.57
2018-02-09T15:14:51.953Z,9.67
2018-02-09T15:16:56.558Z,9.90
2018-02-09T15:19:00.199Z,9.80
2018-02-09T15:21:05.102Z,10.77
2018-02-09T15:23:09.313Z,9.47
2018-02-09T15:25:12.788Z,9.90
2018-02-09T15:27:16.971Z,10.23
2018-02-09T15:29:20.410Z,9.83
2018-02-09T15:31:25.523Z,10.90
2018-02-09T15:33:29.270Z,9.40
2018-02-09T15:35:32.964Z,9.10
2018-02-09T15:37:36.854Z,9.33
2018-02-09T15:39:40.531Z,10.23
2018-02-09T15:41:43.984Z,9.60
2018-02-09T15:43:47.400Z,9.70
2018-02-09T15:45:50.811Z,10.43
2018-02-09T15:47:54.190Z,9.43
2018-02-09T15:49:57.596Z,8.77
2018-02-09T15:52:01.032Z,8.80
2018-02-09T15:54:04.421Z,9.00
2018-02-09T15:56:08.995Z,9.43
2018-02-09T15:58:12.423Z,10.07
2018-02-09T16:00:16.609Z,9.10
2018-02-09T16:02:20.063Z,9.73
2018-02-09T16:04:23.513Z,9.30
2018-02-09T16:06:26.924Z,9.93
2018-02-09T16:08:30.340Z,9.73
2018-02-09T16:10:33.767Z,9.53
2018-02-09T16:12:37.186Z,10.00
2018-02-09T16:14:41.691Z,9.13
2018-02-09T16:16:46.450Z,9.70
2018-02-09T16:18:50.449Z,9.50
2018-02-09T16:20:53.877Z,8.23
2018-02-09T16:22:57.302Z,9.60
2018-02-09T16:25:00.797Z,8.50
2018-02-09T16:27:04.201Z,9.00
2018-02-09T16:29:08.375Z,9.30
2018-02-09T16:31:11.749Z,9.20
2018-02-09T16:33:15.313Z,10.00
2018-02-09T16:35:19.497Z,9.70
2018-02-09T16:37:22.907Z,9.33
2018-02-09T16:39:27.109Z,8.87
2018-02-09T16:41:30.574Z,9.10
2018-02-09T16:43:34.023Z,9.53
2018-02-09T16:45:37.493Z,8.97
2018-02-09T16:47:40.879Z,9.60
2018-02-09T16:49:44.477Z,9.33
2018-02-09T16:51:48.025Z,9.10
2018-02-09T16:53:51.598Z,9.33
2018-02-09T16:55:55.732Z,9.13
2018-02-09T16:58:00.373Z,9.33
2018-02-09T17:00:04.126Z,9.67
2018-02-09T17:02:08.018Z,8.70
2018-02-09T17:04:12.435Z,8.80
2018-02-09T17:06:16.602Z,8.80
2018-02-09T17:08:20.773Z,9.03
2018-02-09T17:10:24.604Z,8.30
2018-02-09T17:12:28.440Z,9.27
2018-02-09T17:14:32.432Z,9.20
2018-02-09T17:16:37.005Z,8.50
2018-02-09T17:18:40.407Z,9.20
2018-02-09T17:20:43.807Z,8.53
2018-02-09T17:22:47.195Z,8.70
2018-02-09T17:24:52.286Z,9.17
2018-02-09T17:26:56.716Z,9.07
2018-02-09T17:29:00.232Z,9.17
2018-02-09T17:31:03.812Z,9.10
2018-02-09T17:33:07.342Z,9.63
2018-02-09T17:35:11.095Z,8.33
2018-02-09T17:37:14.698Z,8.43
2018-02-09T17:39:18.354Z,8.17
2018-02-09T17:41:21.949Z,8.07
2018-02-09T17:43:25.331Z,8.40
2018-02-09T17:45:29.017Z,8.30
2018-02-09T17:47:32.661Z,8.40
2018-02-09T17:49:36.192Z,8.80
2018-02-09T17:51:39.801Z,8.73
2018-02-09T17:53:43.381Z,8.70
2018-02-09T17:55:46.938Z,8.90
2018-02-09T17:57:50.733Z,8.87
2018-02-09T17:59:55.258Z,8.23
2018-02-09T18:01:58.755Z,8.67
2018-02-09T18:04:02.427Z,8.07
2018-02-09T18:06:06.958Z,8.07
2018-02-09T18:08:10.527Z,8.07
2018-02-09T18:10:14.274Z,8.17
2018-02-09T18:12:18.939Z,9.37
2018-02-09T18:14:22.486Z,9.07
2018-02-09T18:16:25.758Z,8.03
2018-02-09T18:18:29.265Z,8.30
2018-02-09T18:20:32.759Z,8.43
2018-02-09T18:22:36.485Z,8.40
2018-02-09T18:24:40.234Z,8.77
2018-02-09T18:26:43.857Z,8.00
2018-02-09T18:28:47.290Z,8.70
2018-02-09T18:30:50.661Z,8.57
2018-02-09T18:32:54.082Z,8.67
2018-02-09T18:34:57.450Z,9.00
2018-02-09T18:37:00.825Z,8.73
2018-02-09T18:39:03.986Z,7.63
2018-02-09T18:41:07.401Z,7.90
2018-02-09T18:43:10.825Z,9.17
2018-02-09T18:45:14.282Z,8.30
2018-02-09T18:47:17.668Z,8.40
2018-02-09T18:49:21.182Z,8.00
2018-02-09T18:51:25.394Z,8.33
2018-02-09T18:53:28.819Z,7.97
2018-02-09T18:55:32.226Z,8.60
2018-02-09T18:57:36.352Z,9.07
2018-02-09T18:59:39.773Z,8.47
2018-02-09T19:01:43.145Z,8.77
2018-02-09T19:03:46.549Z,8.07
2018-02-09T19:05:49.920Z,8.40
2018-02-09T19:07:53.338Z,8.43
2018-02-09T19:09:56.786Z,8.23
2018-02-09T19:12:00.950Z,7.93
2018-02-09T19:14:04.359Z,7.40
2018-02-09T19:16:07.772Z,8.57
2018-02-09T19:18:11.945Z,8.07
2018-02-09T19:20:15.376Z,8.13
2018-02-09T19:22:19.946Z,7.97
2018-02-09T19:24:23.421Z,8.37
2018-02-09T19:26:26.815Z,8.13
2018-02-09T19:28:30.197Z,8.00
2018-02-09T19:30:34.404Z,8.77
2018-02-09T19:32:38.590Z,7.73
2018-02-09T19:34:42.006Z,8.17
2018-02-09T19:36:45.388Z,7.10
2018-02-09T19:38:48.763Z,7.73
2018-02-09T19:40:52.141Z,7.53
2018-02-09T19:42:55.504Z,8.57
2018-02-09T19:44:58.926Z,7.47
2018-02-09T19:47:02.369Z,7.60
2018-02-09T19:49:06.523Z,9.10
2018-02-09T19:51:10.143Z,7.77
2018-02-09T19:53:13.561Z,8.10
2018-02-09T19:55:17.742Z,8.07
2018-02-09T19:57:21.156Z,7.90
2018-02-09T19:59:25.312Z,9.57
2018-02-09T20:01:28.732Z,8.87
2018-02-09T20:03:32.139Z,8.73
2018-02-09T20:05:35.575Z,8.37
2018-02-09T20:07:40.404Z,9.20
2018-02-09T20:09:44.385Z,8.50
2018-02-09T20:11:48.914Z,8.53
2018-02-09T20:13:52.659Z,8.03
2018-02-09T20:15:57.441Z,8.97
2018-02-09T20:18:00.650Z,8.50
2018-02-09T20:20:04.136Z,7.50
2018-02-09T20:22:09.893Z,7.57
2018-02-09T20:24:13.261Z,8.03
2018-02-09T20:26:17.493Z,8.03
2018-02-09T20:28:21.071Z,7.57
2018-02-09T20:30:24.465Z,7.53
2018-02-09T20:32:27.825Z,8.03
2018-02-09T20:34:31.225Z,8.27
2018-02-09T20:36:34.667Z,8.13
2018-02-09T20:38:38.060Z,7.67
2018-02-09T20:40:41.422Z,8.17
2018-02-09T20:42:44.955Z,7.63
2018-02-09T20:44:48.400Z,8.90
2018-02-09T20:46:52.584Z,7.50
2018-02-09T20:48:55.938Z,7.80
2018-02-09T20:50:59.317Z,8.00
2018-02-09T20:53:02.679Z,7.97
2018-02-09T20:55:06.800Z,7.53
2018-02-09T20:57:11.002Z,7.77
2018-02-09T20:59:15.168Z,8.47
2018-02-09T21:01:20.107Z,8.03
2018-02-09T21:03:24.453Z,8.00
2018-02-09T21:05:28.069Z,7.90
2018-02-09T21:07:31.760Z,8.20
2018-02-09T21:09:35.124Z,7.90
2018-02-09T21:11:38.880Z,7.53
2018-02-09T21:13:42.266Z,7.43
2018-02-09T21:15:45.638Z,7.73
2018-02-09T21:17:49.984Z,7.70
2018-02-09T21:19:53.509Z,8.20
2018-02-09T21:21:56.993Z,7.93
2018-02-09T21:24:00.380Z,7.90
2018-02-09T21:26:03.630Z,8.00
2018-02-09T21:28:07.809Z,7.40
2018-02-09T21:30:11.202Z,7.60
2018-02-09T21:32:14.905Z,7.83
2018-02-09T21:34:18.385Z,8.43
2018-02-09T21:36:22.645Z,7.43
2018-02-09T21:38:26.033Z,7.67
2018-02-09T21:40:30.214Z,8.33
2018-02-09T21:42:33.896Z,7.73
2018-02-09T21:44:37.395Z,8.27
2018-02-09T21:46:40.904Z,7.77
2018-02-09T21:48:44.755Z,8.10
2018-02-09T21:50:48.164Z,8.70
2018-02-09T21:52:52.039Z,8.87
2018-02-09T21:54:56.921Z,8.30
2018-02-09T21:57:00.576Z,7.97
2018-02-09T21:59:04.005Z,8.53
2018-02-09T22:01:07.387Z,8.00
2018-02-09T22:03:10.757Z,8.00
2018-02-09T22:05:14.210Z,7.63
2018-02-09T22:07:18.100Z,8.17
2018-02-09T22:09:21.551Z,7.90
2018-02-09T22:11:24.952Z,8.23
2018-02-09T22:13:29.792Z,8.17
2018-02-09T22:15:33.233Z,7.60
2018-02-09T22:17:37.480Z,8.60
2018-02-09T22:19:41.795Z,8.33
2018-02-09T22:21:45.505Z,8.33
2018-02-09T22:23:49.809Z,7.93
2018-02-09T22:25:53.566Z,7.80
2018-02-09T22:27:58.898Z,8.27
2018-02-09T22:30:02.654Z,8.50
2018-02-09T22:32:06.015Z,9.07
2018-02-09T22:34:10.762Z,8.17
2018-02-09T22:36:14.904Z,8.87
2018-02-09T22:38:18.320Z,7.90
2018-02-09T22:40:22.506Z,8.47
2018-02-09T22:42:25.985Z,9.00
2018-02-09T22:44:29.360Z,8.40
2018-02-09T22:46:33.330Z,7.90
2018-02-09T22:48:37.576Z,8.33
2018-02-09T22:50:42.206Z,8.77
2018-02-09T22:52:45.664Z,8.13
2018-02-09T22:54:49.843Z,8.40
2018-02-09T22:56:53.283Z,8.23
2018-02-09T22:58:56.676Z,8.60
2018-02-09T23:00:59.706Z,8.43
2018-02-09T23:03:04.016Z,8.50
2018-02-09T23:05:07.421Z,8.50
2018-02-09T23:07:10.881Z,8.43
2018-02-09T23:09:14.552Z,9.20
2018-02-09T23:11:19.174Z,8.30
2018-02-09T23:13:22.542Z,9.20
2018-02-09T23:15:26.854Z,9.00
2018-02-09T23:17:30.229Z,8.17
2018-02-09T23:19:33.667Z,8.33
2018-02-09T23:21:37.066Z,8.37
2018-02-09T23:23:40.524Z,8.53
2018-02-09T23:25:44.689Z,9.03
2018-02-09T23:27:48.133Z,9.03
2018-02-09T23:29:51.622Z,8.27
2018-02-09T23:31:55.823Z,9.10
2018-02-09T23:33:59.192Z,9.37
2018-02-09T23:36:02.579Z,8.70
2018-02-09T23:38:06.001Z,8.60
2018-02-09T23:40:09.490Z,7.77
2018-02-09T23:42:12.962Z,8.40
2018-02-09T23:44:16.335Z,8.47
2018-02-09T23:46:19.711Z,8.97
2018-02-09T23:48:23.392Z,8.10
2018-02-09T23:50:27.577Z,8.57
2018-02-09T23:52:30.957Z,8.33
2018-02-09T23:54:34.610Z,8.67
2018-02-09T23:56:38.337Z,8.77
2018-02-09T23:58:41.776Z,8.53
